• Join FlightAware (Why Join?)
  • Login
  • US Flag 
11:27AM EDT


 

Airport Tracker/Info


-or-


 

Live Flight TrackerFlight Track Log ✈ N108MV ✈ 21-Jul-2013 ✈ 36U - KFFL

Flight Track Log - Related Links

Times and Time Zones

All times are in EDT time to prevent confusion due to time zone crossing. See the N108MV flight status page for this flight to view local times or setup timezone preferences in your user account.

Time Position Orientation Groundspeed Altitude Reporting Facility
EDT Latitude Longitude Course Direction KTS MPH feet Rate Location/Type
01:33PM 40.4036 -111.4111 80° East 237 273 11,600  Level Salt Lake Center
01:34PM 40.4181 -111.2992 80° East 251 289 14,400 2,460 Climbing Salt Lake Center
01:35PM 40.4300 -111.2019 81° East 265 305 16,700 2,100 Climbing Salt Lake Center
01:36PM 40.4408 -111.1044 82° East 269 310 18,800 1,980 Climbing Salt Lake Center
01:37PM 40.4531 -111.0011 81° East 281 323 20,800 1,860 Climbing Salt Lake Center
01:38PM 40.4656 -110.8939 81° East 292 336 22,700 1,800 Climbing Salt Lake Center
01:39PM 40.4775 -110.7861 82° East 298 343 24,600 1,740 Climbing Salt Lake Center
01:40PM 40.4922 -110.6525 82° East 308 354 26,300 1,440 Climbing Salt Lake Center
01:41PM 40.5047 -110.5353 82° East 319 367 27,600 1,140 Climbing Salt Lake Center
01:43PM 40.5183 -110.4186 81° East 334 384 28,700 1,260 Climbing Salt Lake Center
01:44PM 40.5325 -110.2817 82° East 339 390 30,300 1,260 Climbing Salt Lake Center
01:45PM 40.5461 -110.1622 81° East 344 396 31,400 1,080 Climbing Salt Lake Center
01:46PM 40.5611 -110.0194 82° East 352 405 32,600 1,140 Climbing Salt Lake Center
01:47PM 40.5742 -109.8961 82° East 356 410 33,800 1,140 Climbing Salt Lake Center
01:48PM 40.5894 -109.7508 82° East 358 412 35,000 1,020 Climbing Salt Lake Center
01:49PM 40.6025 -109.6250 82° East 362 417 36,000 960 Climbing Salt Lake Center
01:50PM 40.6153 -109.4983 82° East 364 419 37,100 960 Climbing Salt Lake Center
01:51PM 40.6300 -109.3536 82° East 360 414 38,100 900 Climbing Salt Lake Center
01:52PM 40.6433 -109.2289 82° East 360 414 39,000 840 Climbing Salt Lake Center
01:53PM 40.6533 -109.1228 83° East 359 413 39,600 720 Climbing Denver Center
01:54PM 40.6656 -108.9964 83° East 362 417 40,300 600 Climbing Denver Center
01:55PM 40.6794 -108.8503 83° East 361 415 40,900 240 Climbing Denver Center
01:56PM 40.6919 -108.7181 83° East 373 429 40,800 -60 Descending Denver Center
01:57PM 40.7078 -108.5531 83° East 400 460 40,800  Level Denver Center
01:58PM 40.7211 -108.4050 83° East 419 482 40,800  Level Denver Center
01:59PM 40.7378 -108.2272 83° East 433 498 40,900  Climbing Denver Center
02:00PM 40.7531 -108.0617 83° East 446 513 40,800 -60 Descending Denver Center
02:01PM 40.7661 -107.9067 84° East 447 514 40,800  Level Denver Center
02:02PM 40.7822 -107.7269 83° East 444 511 40,800  Level Denver Center
02:03PM 40.7953 -107.5736 84° East 440 506 40,800  Level Denver Center
02:04PM 40.8108 -107.3942 83° East 443 510 40,800  Level Denver Center
02:05PM 40.8231 -107.2414 84° East 440 506 40,800  Level Denver Center
02:06PM 40.8372 -107.0619 84° East 440 506 40,800  Level Denver Center
02:07PM 40.8494 -106.9078 84° East 442 509 40,800  Level Denver Center
02:08PM 40.8639 -106.7272 84° East 443 510 40,900  Climbing Denver Center
02:09PM 40.8747 -106.5733 85° East 441 507 40,800 -60 Descending Denver Center
02:10PM 40.8875 -106.3933 85° East 442 509 40,800  Level Denver Center
02:11PM 40.8989 -106.2383 84° East 443 510 40,800  Level Denver Center
02:12PM 40.9133 -106.0689 84° East 442 509 40,800  Level Denver Center
02:13PM 40.9247 -105.9075 85° East 443 510 40,900  Climbing Denver Center
02:14PM 40.9358 -105.7447 85° East 445 512 40,800 -60 Descending Denver Center
02:15PM 40.9467 -105.5833 85° East 443 510 40,800  Level Denver Center
02:16PM 40.9572 -105.4203 85° East 446 513 40,800  Level Denver Center
02:17PM 40.9692 -105.2281 85° East 440 506 40,800  Level Denver Center
02:18PM 40.9792 -105.0661 85° East 439 505 40,800  Level Denver Center
02:19PM 40.9894 -104.9025 85° East 443 510 40,800  Level Denver Center
02:20PM 40.9994 -104.7378 85° East 446 513 40,800  Level Denver Center
02:22PM 41.0097 -104.5589 86° East 450 518 40,800  Level Denver Center
02:23PM 41.0194 -104.4014 85° East 450 518 40,800  Level Denver Center
02:24PM 41.0292 -104.2169 86° East 453 521 40,800  Level Denver Center
02:25PM 41.0378 -104.0583 86° East 453 521 40,800  Level Denver Center
02:26PM 41.0481 -103.8722 86° East 454 522 40,800  Level Denver Center
02:27PM 41.0550 -103.7131 87° East 454 522 40,800  Level Denver Center
02:28PM 41.0647 -103.5289 86° East 451 519 40,800  Level Denver Center
02:29PM 41.0728 -103.3708 86° East 450 518 40,800  Level Denver Center
02:30PM 41.0800 -103.1875 87° East 448 516 40,800  Level Denver Center
02:31PM 41.0881 -103.0300 86° East 449 517 40,800  Level Denver Center
02:32PM 41.0961 -102.8558 86° East 450 518 40,800  Level Denver Center
02:33PM 41.1033 -102.6714 87° East 449 517 40,800  Level Denver Center
02:34PM 41.1108 -102.5147 86° East 447 514 40,800  Level Denver Center
02:35PM 41.1161 -102.3300 88° East 449 517 40,800  Level Denver Center
02:36PM 41.1219 -102.1722 87° East 447 514 40,800  Level Denver Center
02:37PM 41.1303 -101.9886 86° East 447 514 40,800  Level Denver Center
02:38PM 41.1353 -101.8333 88° East 442 509 40,800  Level Denver Center
02:39PM 41.1414 -101.6778 87° East 440 506 40,800  Level Denver Center
02:40PM 41.1467 -101.4950 88° East 442 509 40,800  Level Denver Center
02:41PM 41.1525 -101.3394 87° East 440 506 40,800  Level Denver Center
02:42PM 41.1578 -101.1583 88° East 439 505 40,800  Level Denver Center
02:43PM 41.1633 -101.0036 87° East 436 502 40,800  Level Denver Center
02:44PM 41.1681 -100.8214 88° East 437 503 40,800  Level Denver Center
02:45PM 41.1722 -100.6658 88° East 436 502 40,800  Level Denver Center
02:46PM 41.1767 -100.5117 88° East 434 499 40,800  Level Denver Center
02:47PM 41.1803 -100.3308 88° East 436 502 40,800  Level Denver Center
02:48PM 41.1831 -100.1767 89° East 436 502 40,800  Level Denver Center
02:49PM 41.1858 -100.0483 88° East 436 502 40,800  Level Denver Center
02:50PM 41.1892 -99.8411 89° East 439 505 40,800  Level Denver Center
02:52PM 41.1922 -99.6608 89° East 437 503 40,800  Level Denver Center
02:53PM 41.1942 -99.5083 89° East 433 498 40,800  Level Denver Center
02:54PM 41.1961 -99.3575 89° East 433 498 40,800  Level Denver Center
02:55PM 41.1983 -99.1661 89° East 433 498 40,800  Level Denver Center
02:56PM 41.2000 -98.9986 89° East 433 498 40,800  Level Denver Center
02:57PM 41.2011 -98.8428 89° East 438 504 40,800  Level Denver Center
02:58PM 41.2031 -98.6692 89° East 439 505 40,900  Climbing Denver Center
02:59PM 41.2042 -98.5378 89° East 441 507 40,800 -60 Descending Denver Center
03:00PM 41.2042 -98.3108 90° East 438 504 40,800  Level Minneapolis Center
03:01PM 41.2047 -98.1161 90° East 439 505 40,800  Level Minneapolis Center
03:02PM 41.2047 -97.9539 90° East 439 505 40,800  Level Minneapolis Center
03:03PM 41.2044 -97.7928 90° East 437 503 40,800  Level Minneapolis Center
03:04PM 41.2042 -97.6322 90° East 435 501 40,800  Level Minneapolis Center
03:05PM 41.2042 -97.4714 90° East 435 501 40,800  Level Minneapolis Center
03:06PM 41.2025 -97.2878 91° East 434 499 40,800  Level Minneapolis Center
03:08PM 41.2017 -97.1275 90° East 434 499 40,800  Level Minneapolis Center
03:09PM 41.1997 -96.9375 91° East 431 496 40,800  Level Minneapolis Center
03:10PM 41.1986 -96.7783 90° East 431 496 40,800  Level Minneapolis Center
03:11PM 41.1981 -96.5886 90° East 429 494 40,800 60 Level Minneapolis Center
03:12PM 41.1958 -96.4019 91° East 425 489 41,000 60 Climbing Minneapolis Center
03:13PM 41.1919 -96.2317 92° East 431 496 41,000  Level Minneapolis Center
03:15PM 41.1969 -96.0335 88° East  Level FlightAware Approximate
03:15PM 41.1878 -95.8533 88° East 427 491 41,000  Level Minneapolis Center
03:16PM 41.1847 -95.6944 91° East 428 493 41,000  Level Minneapolis Center
03:17PM 41.1800 -95.5272 92° East 427 491 41,000  Level Minneapolis Center
03:19PM 41.1772 -95.3708 91° East 426 490 41,000  Level Minneapolis Center
03:20PM 41.1747 -95.2144 91° East 427 491 41,000  Level Minneapolis Center
03:21PM 41.1717 -95.0583 91° East 425 489 41,100 480 Climbing Minneapolis Center
03:22PM 41.1672 -94.9061 92° East 418 481 42,000 900 Climbing Minneapolis Center
03:23PM 41.1611 -94.6994 92° East 404 465 43,200 900 Climbing Minneapolis Center
03:24PM 41.1572 -94.5558 92° East 395 455 44,100 780 Climbing Minneapolis Center
03:25PM 41.1525 -94.4133 92° East 389 448 44,900 420 Climbing Minneapolis Center
03:26PM 41.1489 -94.2692 92° East 389 448 45,000  Climbing Minneapolis Center
03:27PM 41.1433 -94.1033 92° East 403 464 45,000  Level Minneapolis Center
03:28PM 41.1356 -93.9519 94° East 411 473 45,000  Level Minneapolis Center
03:29PM 41.1325 -93.7967 91° East 420 483 45,000  Level Minneapolis Center
03:30PM 41.1269 -93.6717 93° East 424 488 45,000  Level Minneapolis Center
03:31PM 41.1233 -93.5144 92° East 427 491 45,000  Level Minneapolis Center
03:32PM 41.1147 -93.2928 93° East 432 497 45,000  Level Minneapolis Center
03:33PM 41.1083 -93.1342 93° East 432 497 45,000  Level Minneapolis Center
03:34PM 41.1031 -93.0053 93° East 433 498 45,000  Level Chicago Center
03:35PM 41.0967 -92.8494 93° East 426 490 45,000  Level Chicago Center
03:36PM 41.0892 -92.6739 93° East 400 460 45,000  Level Chicago Center
03:37PM 41.0831 -92.5353 93° East 384 442 45,000  Level Chicago Center
03:38PM 41.0775 -92.4003 93° East 372 428 45,000 -1,020 Level Chicago Center
03:40PM 41.0528 -92.1289 97° East 373 429 41,900 -3,000 Descending Chicago Center
03:41PM 41.0400 -91.9550 96° East 398 458 35,700 -4,560 Descending Chicago Center
03:42PM 41.0175 -91.8158 102° East 396 456 32,500 -5,460 Descending Chicago Center
03:43PM 40.9350 -91.8061 175° South 344 396 24,500 -6,000 Descending Chicago Center
03:44PM 40.9464 -91.9017 279° West 291 335 20,200 -4,500 Descending Chicago Center
03:45PM 41.0156 -91.9556 330° Northwest 289 333 15,200 -4,800 Descending Chicago Center